Oden — SMLQ — position and weather

sailwx.info

Track history (hours):
 
Tides and Currents Weather Stations Pressure Air Temp Water Temp Dewpoint Dewpoint Depression Visibility Wind Speed Wind Dir Waves Ship Positions

Oceanographic research ship Oden (Sweden)

Detailed information on ship capabilities available from ARCUS's ALIAS (Arctic Logistics Information and Support) project.

Last reported at 2019-Aug-24 06:00 UTC. Time now 2019-Aug-24 08:51 UTC.
Position N 82°18' W 051°54'.

Length 108 m; draft 8.5 m.

Type: Other ship. MMSI: 265182000.

Wind from 170 at 21 knots

Barometer 1002.0 mb
Air temperature 6.5 ° C
Water temperature 0.1 ° C

Date/timePositionNaut miles runAvg speedWind from/ knotsBaromVisibWave heightAir tempDewpointWater temp
2019-Aug-24 06:00N 82°18' W 051°54'0 0.0 170 / 211002.0 6.5 0.1
2019-Aug-24 03:00N 82°18' W 051°54'2 0.5 190 / 141004.0 5.0 -0.0
2019-Aug-24 00:00N 82°18' W 052°06'4 1.3 190 / 191006.0 4.5 -0.1
2019-Aug-23 21:00N 82°18' W 052°36'2 0.5 160 / 141008.0 3.3 -0.1
2019-Aug-23 18:00N 82°18' W 052°24'0 0.0 200 / 141010.0 2.6 0.1
2019-Aug-23 15:00N 82°18' W 052°24'3 1.1 160 / 171011.0 3.3 -0.2
2019-Aug-23 12:00N 82°18' W 052°48'2 0.5 170 / 141012.0 4.1 -0.3
2019-Aug-23 09:00N 82°18' W 053°00'2 0.8 180 / 121011.0 7.0 -0.3
2019-Aug-23 06:00N 82°18' W 052°42'4 1.3 160 / 121012.0 2.8 -0.1
2019-Aug-23 03:00N 82°18' W 052°12'3 1.1 150 / 161012.0 4.0 -0.0
2019-Aug-23 00:00N 82°18' W 051°48'5 1.6 180 / 121012.0 6.9 0.2
2019-Aug-22 21:00N 82°18' W 052°24'7 2.4 180 / 121011.0 3.8 -0.1
2019-Aug-22 18:00N 82°12' W 052°54'1 0.3 330 / 81011.0 3.9 -0.1
2019-Aug-22 15:00N 82°12' W 052°48'2 0.5 1011.0 1.8 -0.1
2019-Aug-22 12:00N 82°12' W 052°36'0 0.0 150 / 81010.0 4.0 -0.1
2019-Aug-22 09:00N 82°12' W 052°36'1 0.3 140 / 121009.0 2.1 -0.1
2019-Aug-22 06:00N 82°12' W 052°30'3 1.1 240 / 141008.0 5.3 0.2
2019-Aug-22 03:00N 82°12' W 052°06'12 4.1 190 / 81008.0 3.5 0.7
2019-Aug-22 00:00N 82°00' W 051°48'6 2.0 250 / 21008.0 3.2 2.0
2019-Aug-21 21:00N 81°54' W 051°42'5 0.6 350 / 61008.0 3.9 2.6
2019-Aug-21 12:00N 81°54' W 051°06'10 3.2 150 / 141010.0 0.8 2.4
2019-Aug-21 09:00N 82°00' W 052°00'3 0.8 130 / 81012.0 0.2 1.0
2019-Aug-21 06:00N 82°00' W 051°42'10 3.2 140 / 81013.0 -0.7 1.3
2019-Aug-21 03:00N 81°54' W 050°48'6 1.0 030 / 41014.0 -0.5 2.5
2019-Aug-20 21:00N 81°48' W 050°36'3 1.1 330 / 81013.0 -0.7 2.5
2019-Aug-20 18:00N 81°48' W 051°00'0 0.0 320 / 101012.0 -1.0 2.7
2019-Aug-20 15:00N 81°48' W 051°00'7 2.5 330 / 121011.0 -0.8 2.3
2019-Aug-20 12:00N 81°54' W 051°30'9 3.0 320 / 101011.0 -0.5 2.5
2019-Aug-20 09:00N 82°00' W 052°18'0 0.0 310 / 61011.0 -0.7 1.0
2019-Aug-20 06:00N 82°00' W 052°18'6 2.1 340 / 81011.0 -0.6 1.1
2019-Aug-20 03:00N 81°54' W 052°06'0 0.0 1010.0 -0.3 1.3
2019-Aug-19 09:00N 81°54' W 052°06'3 1.1 360 / 81012.0 -1.1 1.7
2019-Aug-19 06:00N 81°54' W 051°42'1 0.3 360 / 21012.0 -1.1 2.7
2019-Aug-19 03:00N 81°54' W 051°48'7 2.3 330 / 61012.0 -0.5 2.8
2019-Aug-19 00:00N 81°48' W 051°24'7 2.5 010 / 41012.0 -0.2 3.0
2019-Aug-18 21:00N 81°54' W 050°54'2 0.6 340 / 61013.0 0.3 3.3
2019-Aug-18 18:00N 81°54' W 051°06'1 0.3 310 / 81014.0 0.4 3.6
2019-Aug-18 15:00N 81°54' W 051°00'3 0.8 280 / 121014.0 1.5 3.6
2019-Aug-18 12:00N 81°54' W 051°18'1 0.3 290 / 81015.0 2.2 3.2
2019-Aug-18 09:00N 81°54' W 051°12'2 0.6 120 / 61015.0 3.3 3.6
2019-Aug-18 06:00N 81°54' W 051°24'1 0.3 130 / 121016.0 1.5 3.1
2019-Aug-18 03:00N 81°54' W 051°18'3 0.8 110 / 81017.0 1.0 3.0
2019-Aug-18 00:00N 81°54' W 051°00'3 0.8 160 / 61019.0 0.4 3.3
2019-Aug-17 21:00N 81°54' W 051°18'3 0.8 350 / 61019.0 0.6 3.2
2019-Aug-17 18:00N 81°54' W 051°36'6 2.0 040 / 61019.0 0.3 3.1
2019-Aug-17 15:00N 82°00' W 051°36'6 2.0 330 / 101018.0 0.4 3.2
2019-Aug-17 12:00N 81°54' W 051°30'0 0.0 330 / 101017.0 -0.0 3.1
2019-Aug-17 09:00N 81°54' W 051°30'1 0.3 1016.0 1.2 3.4
2019-Aug-17 06:00N 81°54' W 051°24'6 2.0 310 / 41016.0 1.2 3.6
2019-Aug-17 03:00N 82°00' W 051°18'1 0.3 320 / 61016.0 0.7 3.4
2019-Aug-17 00:00N 82°00' W 051°24'6 2.1 340 / 61015.0 0.7 3.4
2019-Aug-16 21:00N 82°06' W 051°36'6 2.2 330 / 81015.0 0.4 4.1
2019-Aug-16 18:00N 82°00' W 051°54'1 0.3 300 / 61015.0 1.0 3.6
2019-Aug-16 15:00N 82°00' W 051°48'0 0.0 330 / 21015.0 0.8 4.3
2019-Aug-16 12:00N 82°00' W 051°48'3 1.1 350 / 61015.0 1.3 3.7
2019-Aug-16 09:00N 82°00' W 051°24'3 0.8 340 / 41015.0 1.4 3.1
2019-Aug-16 06:00N 82°00' W 051°42'1 0.3 340 / 41015.0 1.5 3.3
2019-Aug-16 03:00N 82°00' W 051°48'6 2.2 080 / 21015.0 2.1 3.8
2019-Aug-16 00:00N 82°06' W 051°30'8 2.8 330 / 41016.0 2.3 3.7
2019-Aug-15 21:00N 82°00' W 052°12'1 0.1 320 / 41016.0 1.5 3.3
2019-Aug-15 15:00N 82°00' W 052°06'2 0.6 330 / 61018.0 2.7 4.0
2019-Aug-15 12:00N 82°00' W 052°18'   360 / 61017.0 3.3 3.4
Track history (hours):
 
Tides and Currents Weather Stations Pressure Air Temp Water Temp Dewpoint Dewpoint Depression Visibility Wind Speed Wind Dir Waves Ship Positions

Oceanographic research ship Oden (Sweden)

Detailed information on ship capabilities available from ARCUS's ALIAS (Arctic Logistics Information and Support) project.

Last reported at 2019-Aug-24 06:00 UTC. Time now 2019-Aug-24 08:51 UTC.
Position N 82°18' W 051°54'.

Length 108 m; draft 8.5 m.

Type: Other ship. MMSI: 265182000.

Wind from 170 at 21 knots

Barometer 1002.0 mb
Air temperature 6.5 ° C
Water temperature 0.1 ° C

Date/timePositionNaut miles runAvg speedWind from/ knotsBaromVisibWave heightAir tempDewpointWater temp
2019-Aug-24 06:00N 82°18' W 051°54'0 0.0 170 / 211002.0 6.5 0.1
2019-Aug-24 03:00N 82°18' W 051°54'2 0.5 190 / 141004.0 5.0 -0.0
2019-Aug-24 00:00N 82°18' W 052°06'4 1.3 190 / 191006.0 4.5 -0.1
2019-Aug-23 21:00N 82°18' W 052°36'2 0.5 160 / 141008.0 3.3 -0.1
2019-Aug-23 18:00N 82°18' W 052°24'0 0.0 200 / 141010.0 2.6 0.1
2019-Aug-23 15:00N 82°18' W 052°24'3 1.1 160 / 171011.0 3.3 -0.2
2019-Aug-23 12:00N 82°18' W 052°48'2 0.5 170 / 141012.0 4.1 -0.3
2019-Aug-23 09:00N 82°18' W 053°00'2 0.8 180 / 121011.0 7.0 -0.3
2019-Aug-23 06:00N 82°18' W 052°42'4 1.3 160 / 121012.0 2.8 -0.1
2019-Aug-23 03:00N 82°18' W 052°12'3 1.1 150 / 161012.0 4.0 -0.0
2019-Aug-23 00:00N 82°18' W 051°48'5 1.6 180 / 121012.0 6.9 0.2
2019-Aug-22 21:00N 82°18' W 052°24'7 2.4 180 / 121011.0 3.8 -0.1
2019-Aug-22 18:00N 82°12' W 052°54'1 0.3 330 / 81011.0 3.9 -0.1
2019-Aug-22 15:00N 82°12' W 052°48'2 0.5 1011.0 1.8 -0.1
2019-Aug-22 12:00N 82°12' W 052°36'0 0.0 150 / 81010.0 4.0 -0.1
2019-Aug-22 09:00N 82°12' W 052°36'1 0.3 140 / 121009.0 2.1 -0.1
2019-Aug-22 06:00N 82°12' W 052°30'3 1.1 240 / 141008.0 5.3 0.2
2019-Aug-22 03:00N 82°12' W 052°06'12 4.1 190 / 81008.0 3.5 0.7
2019-Aug-22 00:00N 82°00' W 051°48'6 2.0 250 / 21008.0 3.2 2.0
2019-Aug-21 21:00N 81°54' W 051°42'5 0.6 350 / 61008.0 3.9 2.6
2019-Aug-21 12:00N 81°54' W 051°06'10 3.2 150 / 141010.0 0.8 2.4
2019-Aug-21 09:00N 82°00' W 052°00'3 0.8 130 / 81012.0 0.2 1.0
2019-Aug-21 06:00N 82°00' W 051°42'10 3.2 140 / 81013.0 -0.7 1.3
2019-Aug-21 03:00N 81°54' W 050°48'6 1.0 030 / 41014.0 -0.5 2.5
2019-Aug-20 21:00N 81°48' W 050°36'3 1.1 330 / 81013.0 -0.7 2.5
2019-Aug-20 18:00N 81°48' W 051°00'0 0.0 320 / 101012.0 -1.0 2.7
2019-Aug-20 15:00N 81°48' W 051°00'7 2.5 330 / 121011.0 -0.8 2.3
2019-Aug-20 12:00N 81°54' W 051°30'9 3.0 320 / 101011.0 -0.5 2.5
2019-Aug-20 09:00N 82°00' W 052°18'0 0.0 310 / 61011.0 -0.7 1.0
2019-Aug-20 06:00N 82°00' W 052°18'6 2.1 340 / 81011.0 -0.6 1.1
2019-Aug-20 03:00N 81°54' W 052°06'0 0.0 1010.0 -0.3 1.3
2019-Aug-19 09:00N 81°54' W 052°06'3 1.1 360 / 81012.0 -1.1 1.7
2019-Aug-19 06:00N 81°54' W 051°42'1 0.3 360 / 21012.0 -1.1 2.7
2019-Aug-19 03:00N 81°54' W 051°48'7 2.3 330 / 61012.0 -0.5 2.8
2019-Aug-19 00:00N 81°48' W 051°24'7 2.5 010 / 41012.0 -0.2 3.0
2019-Aug-18 21:00N 81°54' W 050°54'2 0.6 340 / 61013.0 0.3 3.3
2019-Aug-18 18:00N 81°54' W 051°06'1 0.3 310 / 81014.0 0.4 3.6
2019-Aug-18 15:00N 81°54' W 051°00'3 0.8 280 / 121014.0 1.5 3.6
2019-Aug-18 12:00N 81°54' W 051°18'1 0.3 290 / 81015.0 2.2 3.2
2019-Aug-18 09:00N 81°54' W 051°12'2 0.6 120 / 61015.0 3.3 3.6
2019-Aug-18 06:00N 81°54' W 051°24'1 0.3 130 / 121016.0 1.5 3.1
2019-Aug-18 03:00N 81°54' W 051°18'3 0.8 110 / 81017.0 1.0 3.0
2019-Aug-18 00:00N 81°54' W 051°00'3 0.8 160 / 61019.0 0.4 3.3
2019-Aug-17 21:00N 81°54' W 051°18'3 0.8 350 / 61019.0 0.6 3.2
2019-Aug-17 18:00N 81°54' W 051°36'6 2.0 040 / 61019.0 0.3 3.1
2019-Aug-17 15:00N 82°00' W 051°36'6 2.0 330 / 101018.0 0.4 3.2
2019-Aug-17 12:00N 81°54' W 051°30'0 0.0 330 / 101017.0 -0.0 3.1
2019-Aug-17 09:00N 81°54' W 051°30'1 0.3 1016.0 1.2 3.4
2019-Aug-17 06:00N 81°54' W 051°24'6 2.0 310 / 41016.0 1.2 3.6
2019-Aug-17 03:00N 82°00' W 051°18'1 0.3 320 / 61016.0 0.7 3.4
2019-Aug-17 00:00N 82°00' W 051°24'6 2.1 340 / 61015.0 0.7 3.4
2019-Aug-16 21:00N 82°06' W 051°36'6 2.2 330 / 81015.0 0.4 4.1
2019-Aug-16 18:00N 82°00' W 051°54'1 0.3 300 / 61015.0 1.0 3.6
2019-Aug-16 15:00N 82°00' W 051°48'0 0.0 330 / 21015.0 0.8 4.3
2019-Aug-16 12:00N 82°00' W 051°48'3 1.1 350 / 61015.0 1.3 3.7
2019-Aug-16 09:00N 82°00' W 051°24'3 0.8 340 / 41015.0 1.4 3.1
2019-Aug-16 06:00N 82°00' W 051°42'1 0.3 340 / 41015.0 1.5 3.3
2019-Aug-16 03:00N 82°00' W 051°48'6 2.2 080 / 21015.0 2.1 3.8
2019-Aug-16 00:00N 82°06' W 051°30'8 2.8 330 / 41016.0 2.3 3.7
2019-Aug-15 21:00N 82°00' W 052°12'1 0.1 320 / 41016.0 1.5 3.3
2019-Aug-15 15:00N 82°00' W 052°06'2 0.6 330 / 61018.0 2.7 4.0
2019-Aug-15 12:00N 82°00' W 052°18'   360 / 61017.0 3.3 3.4

Dump ship's entire track history